createdAt,value
2022-08-26T00:02:23.697Z,16.45
2022-08-26T00:04:52.779Z,14.70
2022-08-26T00:09:54.390Z,15.85
2022-08-26T00:12:35.851Z,14.65
2022-08-26T00:15:06.323Z,15.95
2022-08-26T00:17:37.007Z,15.75
2022-08-26T00:20:11.928Z,15.55
2022-08-26T00:22:40.899Z,15.38
2022-08-26T00:25:12.208Z,14.10
2022-08-26T00:27:41.846Z,16.10
2022-08-26T00:30:15.946Z,14.93
2022-08-26T00:32:53.745Z,14.60
2022-08-26T00:35:23.473Z,15.80
2022-08-26T00:37:53.008Z,14.90
2022-08-26T00:40:24.274Z,17.75
2022-08-26T00:42:53.625Z,17.73
2022-08-26T00:45:22.743Z,17.52
2022-08-26T00:47:57.259Z,17.02
2022-08-26T00:50:30.548Z,17.17
2022-08-26T00:53:03.388Z,17.55
2022-08-26T00:55:38.231Z,17.92
2022-08-26T00:58:08.806Z,17.15
2022-08-26T01:00:38.199Z,19.80
2022-08-26T01:03:11.630Z,19.80
2022-08-26T01:05:43.384Z,17.15
2022-08-26T01:08:12.448Z,17.95
2022-08-26T01:10:41.947Z,20.42
2022-08-26T01:13:15.193Z,18.17
2022-08-26T01:15:49.005Z,17.90
2022-08-26T01:18:20.605Z,17.50
2022-08-26T01:20:59.722Z,18.95
2022-08-26T01:23:34.744Z,19.05
2022-08-26T01:26:08.829Z,20.42
2022-08-26T01:28:51.409Z,19.33
2022-08-26T01:31:24.871Z,18.95
2022-08-26T01:34:00.805Z,18.55
2022-08-26T01:36:30.430Z,19.60
2022-08-26T01:39:00.975Z,18.88
2022-08-26T01:41:36.578Z,19.42
2022-08-26T01:44:09.796Z,18.80
2022-08-26T01:46:39.267Z,20.63
2022-08-26T01:49:09.814Z,19.65
2022-08-26T01:51:41.583Z,20.92
2022-08-26T01:54:13.748Z,19.23
2022-08-26T01:56:43.395Z,18.80
2022-08-26T01:59:17.509Z,20.05
2022-08-26T02:01:46.827Z,17.65
2022-08-26T02:04:22.535Z,20.00
2022-08-26T02:06:52.756Z,17.83
2022-08-26T02:09:25.757Z,18.10
2022-08-26T02:11:56.352Z,17.42
2022-08-26T02:14:29.154Z,16.75
2022-08-26T02:16:58.752Z,18.42
2022-08-26T02:19:32.713Z,19.17
2022-08-26T02:22:05.542Z,18.80
2022-08-26T02:24:50.106Z,20.17
2022-08-26T02:27:23.760Z,18.95
2022-08-26T02:29:56.573Z,18.40
2022-08-26T02:32:26.114Z,18.40
2022-08-26T02:34:56.279Z,18.85
2022-08-26T02:40:00.412Z,19.27
2022-08-26T02:42:29.567Z,20.65
2022-08-26T02:44:58.733Z,20.77
2022-08-26T02:47:29.213Z,21.17
2022-08-26T02:50:00.658Z,20.35
2022-08-26T02:52:29.857Z,19.80
2022-08-26T02:57:29.257Z,18.67
2022-08-26T02:59:58.781Z,23.23
2022-08-26T03:02:29.360Z,23.35
2022-08-26T03:05:02.183Z,22.92
2022-08-26T03:07:32.035Z,20.00
2022-08-26T03:16:01.493Z,20.45
2022-08-26T03:18:30.851Z,20.70
2022-08-26T03:21:00.338Z,22.73
2022-08-26T03:23:29.431Z,21.80
2022-08-26T03:25:59.898Z,23.55
2022-08-26T03:28:29.101Z,23.83
2022-08-26T03:30:57.857Z,24.48
2022-08-26T03:35:56.859Z,21.98
2022-08-26T03:38:26.315Z,22.60
2022-08-26T03:40:56.309Z,22.25
2022-08-26T03:43:27.959Z,22.65
2022-08-26T03:45:57.012Z,22.17
2022-08-26T03:48:26.596Z,22.90
2022-08-26T03:50:55.734Z,23.95
2022-08-26T03:53:26.871Z,23.70
2022-08-26T03:55:56.277Z,22.60
2022-08-26T03:58:28.044Z,21.20
2022-08-26T04:00:57.307Z,22.10
2022-08-26T04:03:41.050Z,23.35
2022-08-26T04:06:10.311Z,22.25
2022-08-26T04:08:39.551Z,22.58
2022-08-26T04:11:09.365Z,23.25
2022-08-26T04:13:40.813Z,23.52
2022-08-26T04:16:10.284Z,20.02
2022-08-26T04:18:46.565Z,25.58
2022-08-26T04:21:16.270Z,22.00
2022-08-26T04:23:46.955Z,23.52
2022-08-26T04:26:18.020Z,23.75
2022-08-26T04:28:49.193Z,22.95
2022-08-26T04:31:19.882Z,23.42
2022-08-26T04:33:50.958Z,26.50
2022-08-26T04:36:20.460Z,22.05
2022-08-26T04:38:50.745Z,24.50
2022-08-26T04:41:21.236Z,24.52
2022-08-26T04:43:52.663Z,25.50
2022-08-26T04:46:24.869Z,27.08
2022-08-26T04:48:55.221Z,24.58
2022-08-26T04:51:27.929Z,24.98
2022-08-26T04:53:57.747Z,27.05
2022-08-26T04:56:26.944Z,29.92
2022-08-26T04:58:57.585Z,24.58
2022-08-26T05:01:26.990Z,26.83
2022-08-26T05:03:56.307Z,25.45
2022-08-26T05:06:26.030Z,26.30
2022-08-26T05:08:56.070Z,28.00
2022-08-26T05:11:25.195Z,26.77
2022-08-26T05:13:54.201Z,28.23
2022-08-26T05:16:24.750Z,27.98
2022-08-26T05:18:54.986Z,27.58
2022-08-26T05:21:26.632Z,29.13
2022-08-26T05:23:56.736Z,28.42
2022-08-26T05:26:28.377Z,30.27
2022-08-26T05:28:58.283Z,29.85
2022-08-26T05:31:31.576Z,30.13
2022-08-26T05:34:03.684Z,31.83
2022-08-26T05:36:35.085Z,29.73
2022-08-26T05:39:06.010Z,28.52
2022-08-26T05:41:45.432Z,28.48
2022-08-26T05:44:18.845Z,27.92
2022-08-26T05:46:49.493Z,27.67
2022-08-26T05:49:20.414Z,27.00
2022-08-26T05:51:51.775Z,28.02
2022-08-26T05:54:22.382Z,30.55
2022-08-26T05:56:52.134Z,26.17
2022-08-26T05:59:24.658Z,27.52
2022-08-26T06:01:55.770Z,27.88
2022-08-26T06:04:26.970Z,26.80
2022-08-26T06:06:59.020Z,26.25
2022-08-26T06:09:28.324Z,26.38
2022-08-26T06:11:58.828Z,28.75
2022-08-26T06:14:27.778Z,27.73
2022-08-26T06:16:58.941Z,25.95
2022-08-26T06:19:33.038Z,27.50
2022-08-26T06:22:24.128Z,25.42
2022-08-26T06:25:12.129Z,22.98
2022-08-26T06:27:41.404Z,23.63
2022-08-26T06:30:11.566Z,24.10
2022-08-26T06:32:42.812Z,24.27
2022-08-26T06:35:12.413Z,25.65
2022-08-26T06:37:42.884Z,24.23
2022-08-26T06:40:12.745Z,22.08
2022-08-26T06:42:42.191Z,24.58
2022-08-26T06:45:13.082Z,24.25
2022-08-26T06:47:43.948Z,23.58
2022-08-26T06:50:13.942Z,21.23
2022-08-26T06:52:43.715Z,21.85
2022-08-26T06:55:14.266Z,22.48
2022-08-26T06:57:43.432Z,22.33
2022-08-26T07:00:14.036Z,21.33
2022-08-26T07:02:46.842Z,23.48
2022-08-26T07:05:16.664Z,22.25
2022-08-26T07:07:45.740Z,21.40
2022-08-26T07:10:14.902Z,21.33
2022-08-26T07:12:47.082Z,20.67
2022-08-26T07:15:16.780Z,20.45
2022-08-26T07:17:47.829Z,20.50
2022-08-26T07:20:18.122Z,18.52
2022-08-26T07:22:48.689Z,20.40
2022-08-26T07:25:19.308Z,17.65
2022-08-26T07:27:54.096Z,18.35
2022-08-26T07:30:23.679Z,17.13
2022-08-26T07:32:56.621Z,19.17
2022-08-26T07:35:26.631Z,22.33
2022-08-26T07:37:57.168Z,19.23
2022-08-26T07:40:26.432Z,19.98
2022-08-26T07:42:55.566Z,19.63
2022-08-26T07:45:24.968Z,20.13
2022-08-26T07:47:56.482Z,20.38
2022-08-26T07:50:49.815Z,18.70
2022-08-26T07:53:16.206Z,21.80
2022-08-26T07:55:47.341Z,20.85
2022-08-26T07:58:16.746Z,21.50
2022-08-26T08:00:46.417Z,20.92
2022-08-26T08:03:17.414Z,18.55
2022-08-26T08:05:47.278Z,19.15
2022-08-26T08:08:26.376Z,17.10
2022-08-26T08:10:57.270Z,16.45
2022-08-26T08:13:26.554Z,14.27
2022-08-26T08:15:55.524Z,14.65
2022-08-26T08:18:28.513Z,12.80
2022-08-26T08:21:10.832Z,12.40
2022-08-26T08:23:47.349Z,11.30
2022-08-26T08:26:16.869Z,11.60
2022-08-26T08:28:46.301Z,12.88
2022-08-26T08:31:45.027Z,10.93
2022-08-26T08:34:12.270Z,12.50
2022-08-26T08:36:41.630Z,12.82
2022-08-26T08:39:11.714Z,10.60
2022-08-26T08:42:06.510Z,10.32
2022-08-26T08:44:39.124Z,11.82
2022-08-26T08:47:26.976Z,11.60
2022-08-26T08:50:04.873Z,11.93
2022-08-26T08:52:37.156Z,10.37
2022-08-26T08:55:11.153Z,11.13
2022-08-26T08:57:54.575Z,10.30
2022-08-26T09:00:30.588Z,9.45
2022-08-26T09:03:08.833Z,11.55
2022-08-26T09:05:48.730Z,10.55
2022-08-26T09:08:23.254Z,10.45
2022-08-26T09:10:56.520Z,8.82
2022-08-26T09:13:27.525Z,10.20
2022-08-26T09:16:06.746Z,9.45
2022-08-26T09:18:52.852Z,8.82
2022-08-26T09:21:26.054Z,10.00
2022-08-26T09:23:56.925Z,8.57
2022-08-26T09:26:30.642Z,9.55
2022-08-26T09:29:02.894Z,8.43
2022-08-26T09:31:35.363Z,10.63
2022-08-26T09:34:13.124Z,10.32
2022-08-26T09:36:50.329Z,10.13
2022-08-26T09:39:33.470Z,8.32
2022-08-26T09:42:10.000Z,7.55
2022-08-26T09:44:55.886Z,6.95
2022-08-26T09:47:31.776Z,6.60
2022-08-26T09:50:12.447Z,6.10
2022-08-26T09:52:43.304Z,6.90
2022-08-26T09:55:16.436Z,6.63
2022-08-26T09:57:48.912Z,8.18
2022-08-26T10:00:31.943Z,6.38
2022-08-26T10:03:04.479Z,5.38
2022-08-26T10:05:41.034Z,5.32
2022-08-26T10:08:28.600Z,6.60
2022-08-26T10:10:58.962Z,5.88
2022-08-26T10:13:34.365Z,6.10
2022-08-26T10:16:15.848Z,5.88
2022-08-26T10:18:48.752Z,6.15
2022-08-26T10:21:25.676Z,6.47
2022-08-26T10:24:00.466Z,5.45
2022-08-26T10:26:40.728Z,5.68
2022-08-26T10:29:15.986Z,5.32
2022-08-26T10:31:51.393Z,5.85
2022-08-26T10:34:21.380Z,5.80
2022-08-26T10:37:14.896Z,5.80
2022-08-26T10:39:58.462Z,5.40
2022-08-26T10:42:35.367Z,5.68
2022-08-26T10:45:14.861Z,5.20
2022-08-26T10:47:49.756Z,5.00
2022-08-26T10:50:19.744Z,4.95
2022-08-26T10:53:00.178Z,5.65
2022-08-26T10:55:37.200Z,4.82
2022-08-26T10:58:26.175Z,5.85
2022-08-26T11:01:23.270Z,5.70
2022-08-26T11:04:07.202Z,5.43
2022-08-26T11:06:36.987Z,6.07
2022-08-26T11:09:08.598Z,5.63
2022-08-26T11:11:50.475Z,4.15
2022-08-26T11:14:41.046Z,4.70
2022-08-26T11:17:57.555Z,3.92
2022-08-26T11:20:36.906Z,5.20
2022-08-26T11:23:36.250Z,3.90
2022-08-26T11:26:35.476Z,5.18
2022-08-26T11:29:13.516Z,4.03
2022-08-26T11:31:57.680Z,4.72
2022-08-26T11:35:00.471Z,3.85
2022-08-26T11:37:37.567Z,3.97
2022-08-26T11:40:13.435Z,3.63
2022-08-26T11:42:49.181Z,4.03
2022-08-26T11:45:26.524Z,4.13
2022-08-26T11:47:55.664Z,4.13
2022-08-26T11:50:28.176Z,4.30
2022-08-26T11:53:02.014Z,4.30
2022-08-26T11:55:34.292Z,4.15
2022-08-26T11:58:07.512Z,4.40
2022-08-26T12:00:53.623Z,4.43
2022-08-26T12:03:26.363Z,4.85
2022-08-26T12:05:57.306Z,4.32
2022-08-26T12:08:31.165Z,3.30
2022-08-26T12:11:09.690Z,3.78
2022-08-26T12:13:39.308Z,3.53
2022-08-26T12:16:10.582Z,3.92
2022-08-26T12:18:40.681Z,4.20
2022-08-26T12:21:20.322Z,4.05
2022-08-26T12:23:52.882Z,3.50
2022-08-26T12:26:26.082Z,4.88
2022-08-26T12:28:58.688Z,3.38
2022-08-26T12:31:32.941Z,3.15
2022-08-26T12:34:05.014Z,3.63
2022-08-26T12:36:38.988Z,3.92
2022-08-26T12:39:10.705Z,3.75
2022-08-26T12:41:42.985Z,3.67
2022-08-26T12:44:37.357Z,5.15
2022-08-26T12:47:12.266Z,3.60
2022-08-26T12:49:43.024Z,3.53
2022-08-26T12:52:33.246Z,3.78
2022-08-26T12:55:06.971Z,3.83
2022-08-26T12:57:39.144Z,3.63
2022-08-26T13:00:32.787Z,3.70
2022-08-26T13:03:04.212Z,3.17
2022-08-26T13:05:35.812Z,3.80
2022-08-26T13:08:14.555Z,4.00
2022-08-26T13:10:46.655Z,3.42
2022-08-26T13:13:16.055Z,4.70
2022-08-26T13:15:45.085Z,3.72
2022-08-26T13:18:15.549Z,3.22
2022-08-26T13:20:45.622Z,4.07
2022-08-26T13:23:15.306Z,3.88
2022-08-26T13:25:45.114Z,4.72
2022-08-26T13:28:14.627Z,4.00
2022-08-26T13:30:47.855Z,4.40
2022-08-26T13:33:21.463Z,3.60
2022-08-26T13:35:50.428Z,3.90
2022-08-26T13:38:32.930Z,4.55
2022-08-26T13:41:03.634Z,4.30
2022-08-26T13:43:33.311Z,3.70
2022-08-26T13:46:02.719Z,3.63
2022-08-26T13:48:35.159Z,3.75
2022-08-26T13:51:08.952Z,3.28
2022-08-26T13:53:38.346Z,3.88
2022-08-26T13:56:11.240Z,4.13
2022-08-26T13:58:40.252Z,4.15
2022-08-26T14:01:10.052Z,5.20
2022-08-26T14:03:41.265Z,3.80
2022-08-26T14:06:11.076Z,4.40
2022-08-26T14:08:40.784Z,3.97
2022-08-26T14:11:10.174Z,3.88
2022-08-26T14:13:39.791Z,3.72
2022-08-26T14:16:13.506Z,4.32
2022-08-26T14:18:50.014Z,3.33
2022-08-26T14:21:21.644Z,3.22
2022-08-26T14:23:50.982Z,4.20
2022-08-26T14:26:28.539Z,3.80
2022-08-26T14:28:59.951Z,4.20
2022-08-26T14:31:30.156Z,5.13
2022-08-26T14:34:03.740Z,4.10
2022-08-26T14:36:33.069Z,3.17
2022-08-26T14:39:05.689Z,3.47
2022-08-26T14:41:37.191Z,3.78
2022-08-26T14:44:09.129Z,3.90
2022-08-26T14:46:44.100Z,3.40
2022-08-26T14:49:15.654Z,3.20
2022-08-26T14:51:44.975Z,3.17
2022-08-26T14:54:14.781Z,3.72
2022-08-26T14:56:49.038Z,3.85
2022-08-26T14:59:20.839Z,3.28
2022-08-26T15:01:50.525Z,4.05
2022-08-26T15:04:21.553Z,3.70
2022-08-26T15:06:51.326Z,3.03
2022-08-26T15:09:21.254Z,4.00
2022-08-26T15:11:50.402Z,5.07
2022-08-26T15:14:20.691Z,4.70
2022-08-26T15:16:51.938Z,3.78
2022-08-26T15:19:25.014Z,4.00
2022-08-26T15:21:54.427Z,4.18
2022-08-26T15:24:26.794Z,3.90
2022-08-26T15:26:56.473Z,3.38
2022-08-26T15:29:25.818Z,3.83
2022-08-26T15:31:57.448Z,3.53
2022-08-26T15:34:28.434Z,7.20
2022-08-26T15:36:57.645Z,6.50
2022-08-26T15:39:26.618Z,4.13
2022-08-26T15:41:56.550Z,3.58
2022-08-26T15:44:27.571Z,4.35
2022-08-26T15:46:58.829Z,3.83
2022-08-26T15:49:29.627Z,3.47
2022-08-26T15:51:58.946Z,3.63
2022-08-26T15:54:28.010Z,3.70
2022-08-26T15:56:59.360Z,3.70
2022-08-26T15:59:28.638Z,3.20
2022-08-26T16:01:57.823Z,3.50
2022-08-26T16:04:28.310Z,3.08
2022-08-26T16:06:57.586Z,2.97
2022-08-26T16:09:27.839Z,4.38
2022-08-26T16:12:00.214Z,3.08
2022-08-26T16:14:29.751Z,3.50
2022-08-26T16:16:58.764Z,3.72
2022-08-26T16:19:29.151Z,3.95
2022-08-26T16:21:58.327Z,2.92
2022-08-26T16:24:30.515Z,3.72
2022-08-26T16:26:59.964Z,3.97
2022-08-26T16:29:29.428Z,3.58
2022-08-26T16:31:58.684Z,4.15
2022-08-26T16:34:29.050Z,3.85
2022-08-26T16:36:58.496Z,3.78
2022-08-26T16:39:28.032Z,3.70
2022-08-26T16:41:57.225Z,4.18
2022-08-26T16:44:28.047Z,4.47
2022-08-26T16:47:00.171Z,3.78
2022-08-26T16:49:30.511Z,4.13
2022-08-26T16:51:59.471Z,4.13
2022-08-26T16:54:28.772Z,3.92
2022-08-26T16:56:58.091Z,4.72
2022-08-26T16:59:27.605Z,5.47
2022-08-26T17:01:56.829Z,4.22
2022-08-26T17:04:26.174Z,4.05
2022-08-26T17:06:58.086Z,5.07
2022-08-26T17:09:27.968Z,4.53
2022-08-26T17:11:57.169Z,4.30
2022-08-26T17:14:26.599Z,4.65
2022-08-26T17:16:55.645Z,4.40
2022-08-26T17:19:25.478Z,3.83
2022-08-26T17:21:54.487Z,4.85
2022-08-26T17:24:25.551Z,5.88
2022-08-26T17:26:55.615Z,4.88
2022-08-26T17:29:24.985Z,5.65
2022-08-26T17:31:54.275Z,6.25
2022-08-26T17:34:24.384Z,5.53
2022-08-26T17:36:53.445Z,7.30
2022-08-26T17:39:23.936Z,8.27
2022-08-26T17:41:53.086Z,7.22
2022-08-26T17:44:22.081Z,6.97
2022-08-26T17:46:51.160Z,6.97
2022-08-26T17:49:20.454Z,6.47
2022-08-26T17:51:50.282Z,7.60
2022-08-26T17:54:19.659Z,8.02
2022-08-26T17:56:50.134Z,6.97
2022-08-26T17:59:19.208Z,8.82
2022-08-26T18:01:49.220Z,8.13
2022-08-26T18:04:18.524Z,8.07
2022-08-26T18:06:47.617Z,7.53
2022-08-26T18:09:16.835Z,7.72
2022-08-26T18:11:45.844Z,8.82
2022-08-26T18:14:16.254Z,8.95
2022-08-26T18:16:45.469Z,8.63
2022-08-26T18:19:14.663Z,8.48
2022-08-26T18:21:43.963Z,8.10
2022-08-26T18:24:14.344Z,9.40
2022-08-26T18:26:48.867Z,8.52
2022-08-26T18:29:20.640Z,8.48
2022-08-26T18:31:49.678Z,8.50
2022-08-26T18:34:19.535Z,13.30
2022-08-26T18:36:49.968Z,13.45
2022-08-26T18:39:23.474Z,12.18
2022-08-26T18:41:53.552Z,9.40
2022-08-26T18:44:24.576Z,9.98
2022-08-26T18:46:55.090Z,11.63
2022-08-26T18:49:24.797Z,11.27
2022-08-26T18:51:53.948Z,12.48
2022-08-26T18:54:23.202Z,10.75
2022-08-26T18:56:52.284Z,11.73
2022-08-26T18:59:30.495Z,13.20
2022-08-26T19:02:00.322Z,10.38
2022-08-26T19:04:29.622Z,8.20
2022-08-26T19:06:58.710Z,8.63
2022-08-26T19:09:28.228Z,7.57
2022-08-26T19:11:58.141Z,8.70
2022-08-26T19:14:28.978Z,8.05
2022-08-26T19:17:01.204Z,7.93
2022-08-26T19:19:31.798Z,8.25
2022-08-26T19:22:03.163Z,8.63
2022-08-26T19:24:32.351Z,8.43
2022-08-26T19:27:03.667Z,8.95
2022-08-26T19:29:36.545Z,9.40
2022-08-26T19:32:07.097Z,10.10
2022-08-26T19:34:36.871Z,9.65
2022-08-26T19:37:06.138Z,9.40
2022-08-26T19:39:36.117Z,10.35
2022-08-26T19:42:05.558Z,11.65
2022-08-26T19:44:53.290Z,9.63
2022-08-26T19:47:22.593Z,9.20
2022-08-26T19:49:55.273Z,11.27
2022-08-26T19:52:30.047Z,10.30
2022-08-26T19:54:59.442Z,10.52
2022-08-26T19:57:28.813Z,9.90
2022-08-26T20:00:00.278Z,11.23
2022-08-26T20:02:30.661Z,9.25
2022-08-26T20:04:59.970Z,10.38
2022-08-26T20:07:28.951Z,10.57
2022-08-26T20:09:59.663Z,11.43
2022-08-26T20:12:29.323Z,10.02
2022-08-26T20:14:59.836Z,9.10
2022-08-26T20:17:29.089Z,11.23
2022-08-26T20:20:32.803Z,11.55
2022-08-26T20:23:05.257Z,11.02
2022-08-26T20:25:35.491Z,10.75
2022-08-26T20:28:05.212Z,10.32
2022-08-26T20:30:35.603Z,12.18
2022-08-26T20:33:04.582Z,12.43
2022-08-26T20:35:34.015Z,11.32
2022-08-26T20:38:03.101Z,10.82
2022-08-26T20:40:32.531Z,13.10
2022-08-26T20:43:01.872Z,13.95
2022-08-26T20:45:30.839Z,12.40
2022-08-26T20:48:01.278Z,11.35
2022-08-26T20:50:33.205Z,12.52
2022-08-26T20:53:02.441Z,12.30
2022-08-26T20:55:31.707Z,13.32
2022-08-26T20:58:00.800Z,11.43
2022-08-26T21:00:29.780Z,11.82
2022-08-26T21:03:01.251Z,11.77
2022-08-26T21:05:30.225Z,11.38
2022-08-26T21:07:59.793Z,11.23
2022-08-26T21:10:30.346Z,11.82
2022-08-26T21:12:59.724Z,12.27
2022-08-26T21:15:29.019Z,11.23
2022-08-26T21:18:03.380Z,11.07
2022-08-26T21:20:33.098Z,11.43
2022-08-26T21:23:02.493Z,11.93
2022-08-26T21:25:31.491Z,12.02
2022-08-26T21:28:00.575Z,12.15
2022-08-26T21:30:30.041Z,11.63
2022-08-26T21:32:59.545Z,11.82
2022-08-26T21:35:29.990Z,14.05
2022-08-26T21:37:59.611Z,12.63
2022-08-26T21:40:29.336Z,12.57
2022-08-26T21:42:58.510Z,11.48
2022-08-26T21:45:27.780Z,12.07
2022-08-26T21:47:57.093Z,12.75
2022-08-26T21:50:26.132Z,11.57
2022-08-26T21:52:56.879Z,11.13
2022-08-26T21:55:25.954Z,11.07
2022-08-26T21:57:55.107Z,10.75
2022-08-26T22:00:24.579Z,10.98
2022-08-26T22:02:53.567Z,12.13
2022-08-26T22:05:22.624Z,12.32
2022-08-26T22:07:51.797Z,12.32
2022-08-26T22:12:51.555Z,12.13
2022-08-26T22:15:23.312Z,12.32
2022-08-26T22:17:52.306Z,11.82
2022-08-26T22:20:21.625Z,11.25
2022-08-26T22:22:50.724Z,12.15
2022-08-26T22:25:20.186Z,12.07
2022-08-26T22:27:50.805Z,11.02
2022-08-26T22:30:20.470Z,10.05
2022-08-26T22:32:49.619Z,11.90
2022-08-26T22:35:29.036Z,12.48
2022-08-26T22:37:59.059Z,10.80
2022-08-26T22:40:28.417Z,11.07
2022-08-26T22:43:00.106Z,13.13
2022-08-26T22:45:31.370Z,11.55
2022-08-26T22:48:01.586Z,12.07
2022-08-26T22:50:30.893Z,11.20
2022-08-26T22:57:59.255Z,11.80
2022-08-26T23:00:32.347Z,11.10
2022-08-26T23:03:03.303Z,10.95
2022-08-26T23:05:32.954Z,10.82
2022-08-26T23:08:03.018Z,11.85
2022-08-26T23:10:32.633Z,11.38
2022-08-26T23:13:03.778Z,12.65
2022-08-26T23:15:33.134Z,11.02
2022-08-26T23:18:02.511Z,11.43
2022-08-26T23:20:32.232Z,11.52
2022-08-26T23:23:02.344Z,10.98
2022-08-26T23:25:32.463Z,11.00
2022-08-26T23:28:03.883Z,11.35
2022-08-26T23:30:34.529Z,10.75
2022-08-26T23:33:03.850Z,10.57
2022-08-26T23:35:31.998Z,10.80
2022-08-26T23:38:02.819Z,11.27
2022-08-26T23:40:35.765Z,11.95
2022-08-26T23:43:08.666Z,11.95
2022-08-26T23:45:37.868Z,11.80
2022-08-26T23:48:07.640Z,11.10
2022-08-26T23:50:54.274Z,11.27
2022-08-26T23:53:24.371Z,11.25
2022-08-26T23:55:54.883Z,11.50
2022-08-26T23:58:25.585Z,11.68
